createdAt,value
2022-07-26T00:01:37.053Z,63.98
2022-07-26T00:04:08.186Z,65.43
2022-07-26T00:06:39.294Z,64.74
2022-07-26T00:09:10.356Z,63.87
2022-07-26T00:11:41.727Z,64.28
2022-07-26T00:14:12.762Z,66.41
2022-07-26T00:16:43.869Z,65.29
2022-07-26T00:19:15.170Z,64.90
2022-07-26T00:21:46.248Z,64.15
2022-07-26T00:24:16.996Z,66.97
2022-07-26T00:26:48.163Z,65.22
2022-07-26T00:29:18.869Z,65.35
2022-07-26T00:31:49.811Z,66.40
2022-07-26T00:34:20.659Z,66.26
2022-07-26T00:36:51.779Z,67.97
2022-07-26T00:39:25.030Z,66.39
2022-07-26T00:41:55.857Z,65.58
2022-07-26T00:44:36.716Z,65.54
2022-07-26T00:47:08.234Z,66.49
2022-07-26T00:49:39.312Z,66.19
2022-07-26T00:52:11.154Z,65.66
2022-07-26T00:54:44.005Z,65.72
2022-07-26T00:57:15.237Z,66.81
2022-07-26T00:59:43.567Z,66.26
2022-07-26T01:02:15.118Z,67.46
2022-07-26T01:04:46.689Z,68.74
2022-07-26T01:07:17.466Z,66.98
2022-07-26T01:09:48.112Z,67.36
2022-07-26T01:12:18.936Z,67.45
2022-07-26T01:14:49.487Z,66.28
2022-07-26T01:17:20.355Z,66.80
2022-07-26T01:19:52.677Z,67.27
2022-07-26T01:22:22.001Z,68.16
2022-07-26T01:24:52.644Z,66.85
2022-07-26T01:27:21.700Z,66.10
2022-07-26T01:29:52.610Z,66.40
2022-07-26T01:32:20.681Z,66.56
2022-07-26T01:34:51.527Z,67.24
2022-07-26T01:37:22.489Z,66.94
2022-07-26T01:39:53.480Z,66.42
2022-07-26T01:42:24.297Z,67.32
2022-07-26T01:44:55.030Z,68.06
2022-07-26T01:47:25.793Z,68.56
2022-07-26T01:49:56.470Z,67.78
2022-07-26T01:52:27.709Z,67.34
2022-07-26T01:54:59.146Z,67.23
2022-07-26T01:57:29.848Z,66.75
2022-07-26T01:59:59.303Z,66.18
2022-07-26T02:02:30.243Z,66.59
2022-07-26T02:05:02.114Z,66.83
2022-07-26T02:07:37.475Z,67.09
2022-07-26T02:10:12.134Z,67.01
2022-07-26T02:12:44.104Z,66.27
2022-07-26T02:15:14.941Z,66.67
2022-07-26T02:17:45.990Z,67.14
2022-07-26T02:20:17.218Z,67.02
2022-07-26T02:22:48.233Z,67.15
2022-07-26T02:25:19.468Z,66.72
2022-07-26T02:27:50.147Z,66.00
2022-07-26T02:30:21.083Z,66.23
2022-07-26T02:32:52.174Z,66.75
2022-07-26T02:35:23.843Z,66.83
2022-07-26T02:37:54.927Z,68.02
2022-07-26T02:40:25.736Z,68.94
2022-07-26T02:42:56.657Z,67.65
2022-07-26T02:45:27.911Z,66.94
2022-07-26T02:47:59.004Z,67.46
2022-07-26T02:50:30.324Z,68.15
2022-07-26T02:53:00.981Z,66.92
2022-07-26T02:55:33.673Z,67.18
2022-07-26T02:58:04.641Z,67.85
2022-07-26T03:00:35.709Z,68.22
2022-07-26T03:03:06.722Z,67.95
2022-07-26T03:05:37.797Z,68.35
2022-07-26T03:08:08.835Z,68.41
2022-07-26T03:10:39.797Z,67.18
2022-07-26T03:13:07.742Z,67.57
2022-07-26T03:15:38.492Z,67.95
2022-07-26T03:18:09.404Z,67.03
2022-07-26T03:20:40.501Z,67.78
2022-07-26T03:23:11.311Z,67.32
2022-07-26T03:25:42.832Z,66.95
2022-07-26T03:28:19.208Z,67.97
2022-07-26T03:30:50.591Z,67.46
2022-07-26T03:33:21.799Z,67.09
2022-07-26T03:35:52.666Z,67.37
2022-07-26T03:38:24.813Z,66.77
2022-07-26T03:40:55.832Z,67.37
2022-07-26T03:43:27.622Z,68.23
2022-07-26T03:45:58.391Z,67.65
2022-07-26T03:48:30.698Z,67.73
2022-07-26T03:51:01.663Z,67.39
2022-07-26T03:53:34.800Z,67.83
2022-07-26T03:56:24.782Z,68.05
2022-07-26T03:58:55.895Z,69.27
2022-07-26T04:01:26.907Z,68.30
2022-07-26T04:03:58.117Z,68.64
2022-07-26T04:06:29.281Z,67.64
2022-07-26T04:09:00.585Z,67.32
2022-07-26T04:11:31.526Z,67.71
2022-07-26T04:14:02.572Z,67.66
2022-07-26T04:16:53.854Z,68.01
2022-07-26T04:19:24.488Z,67.24
2022-07-26T04:21:55.564Z,66.94
2022-07-26T04:24:26.410Z,66.46
2022-07-26T04:26:57.302Z,66.15
2022-07-26T04:29:27.929Z,66.69
2022-07-26T04:31:58.754Z,66.13
2022-07-26T04:34:29.726Z,66.24
2022-07-26T04:37:01.058Z,66.14
2022-07-26T04:39:36.836Z,65.53
2022-07-26T04:42:07.930Z,65.13
2022-07-26T04:44:38.962Z,64.86
2022-07-26T04:47:12.852Z,64.48
2022-07-26T04:49:45.398Z,64.65
2022-07-26T04:52:16.109Z,64.59
2022-07-26T04:54:48.043Z,64.32
2022-07-26T04:57:19.067Z,64.50
2022-07-26T05:00:03.400Z,64.14
2022-07-26T05:02:40.147Z,63.75
2022-07-26T05:05:10.964Z,63.53
2022-07-26T05:07:48.011Z,63.42
2022-07-26T05:10:19.685Z,63.33
2022-07-26T05:12:51.067Z,63.25
2022-07-26T05:15:22.153Z,62.88
2022-07-26T05:17:57.111Z,62.67
2022-07-26T05:20:28.197Z,62.43
2022-07-26T05:22:59.372Z,62.38
2022-07-26T05:25:30.476Z,62.03
2022-07-26T05:28:01.821Z,61.77
2022-07-26T05:30:32.648Z,61.67
2022-07-26T05:33:03.269Z,61.39
2022-07-26T05:35:33.986Z,60.98
2022-07-26T05:38:04.930Z,60.83
2022-07-26T05:40:35.804Z,60.49
2022-07-26T05:43:06.651Z,60.27
2022-07-26T05:45:38.794Z,60.06
2022-07-26T05:48:10.192Z,59.64
2022-07-26T05:50:44.176Z,59.22
2022-07-26T05:53:15.360Z,58.77
2022-07-26T05:55:50.097Z,58.09
2022-07-26T05:58:21.339Z,57.70
2022-07-26T06:00:52.198Z,57.05
2022-07-26T06:03:23.481Z,56.86
2022-07-26T06:05:55.301Z,55.58
2022-07-26T06:08:26.736Z,53.87
2022-07-26T06:10:58.137Z,53.05
2022-07-26T06:13:26.372Z,53.65
2022-07-26T06:15:57.257Z,51.82
2022-07-26T06:18:30.806Z,52.90
2022-07-26T06:21:02.548Z,52.40
2022-07-26T06:23:35.124Z,50.23
2022-07-26T06:26:06.645Z,46.92
2022-07-26T06:28:39.582Z,46.27
2022-07-26T06:31:10.717Z,45.86
2022-07-26T06:33:41.772Z,43.73
2022-07-26T06:36:12.876Z,44.18
2022-07-26T06:38:51.572Z,43.62
2022-07-26T06:41:22.614Z,42.04
2022-07-26T06:43:57.364Z,39.01
2022-07-26T06:46:29.559Z,39.05
2022-07-26T06:49:00.786Z,36.36
2022-07-26T06:51:34.564Z,35.00
2022-07-26T06:54:06.031Z,35.94
2022-07-26T06:56:37.153Z,39.75
2022-07-26T06:59:11.075Z,34.21
2022-07-26T07:01:58.752Z,36.82
2022-07-26T07:04:34.006Z,33.79
2022-07-26T07:07:08.640Z,34.06
2022-07-26T07:09:40.211Z,33.76
2022-07-26T07:12:11.071Z,32.11
2022-07-26T07:14:41.935Z,32.03
2022-07-26T07:17:17.138Z,31.44
2022-07-26T07:19:50.699Z,31.18
2022-07-26T07:22:21.618Z,32.01
2022-07-26T07:24:52.435Z,31.19
2022-07-26T07:27:23.280Z,31.44
2022-07-26T07:29:54.272Z,30.13
2022-07-26T07:32:27.416Z,29.58
2022-07-26T07:34:59.428Z,30.82
2022-07-26T07:37:52.356Z,30.51
2022-07-26T07:40:23.216Z,29.33
2022-07-26T07:42:53.900Z,28.95
2022-07-26T07:45:26.032Z,28.41
2022-07-26T07:47:56.805Z,29.08
2022-07-26T07:50:28.421Z,28.46
2022-07-26T07:52:59.806Z,28.13
2022-07-26T07:55:43.690Z,29.60
2022-07-26T07:58:18.935Z,28.81
2022-07-26T08:00:50.027Z,28.16
2022-07-26T08:03:20.945Z,27.74
2022-07-26T08:05:52.188Z,27.36
2022-07-26T08:08:30.133Z,27.88
2022-07-26T08:11:08.460Z,27.78
2022-07-26T08:13:37.705Z,27.60
2022-07-26T08:16:09.496Z,27.59
2022-07-26T08:18:55.712Z,27.81
2022-07-26T08:21:28.991Z,26.78
2022-07-26T08:24:00.319Z,26.30
2022-07-26T08:26:32.449Z,25.98
2022-07-26T08:29:03.671Z,25.89
2022-07-26T08:31:44.458Z,26.59
2022-07-26T08:34:22.930Z,26.12
2022-07-26T08:37:15.307Z,27.08
2022-07-26T08:39:46.946Z,27.18
2022-07-26T08:42:22.815Z,26.88
2022-07-26T08:44:55.091Z,26.96
2022-07-26T08:47:37.949Z,26.47
2022-07-26T08:50:14.101Z,25.04
2022-07-26T08:52:45.987Z,24.65
2022-07-26T08:55:21.037Z,25.29
2022-07-26T08:57:54.553Z,25.18
2022-07-26T09:00:26.888Z,25.11
2022-07-26T09:02:59.425Z,24.59
2022-07-26T09:05:37.093Z,24.19
2022-07-26T09:08:25.009Z,24.50
2022-07-26T09:10:56.517Z,25.19
2022-07-26T09:13:24.594Z,24.52
2022-07-26T09:16:14.334Z,24.96
2022-07-26T09:18:49.551Z,24.47
2022-07-26T09:21:32.810Z,24.24
2022-07-26T09:24:03.986Z,24.97
2022-07-26T09:26:35.158Z,25.00
2022-07-26T09:29:30.202Z,23.34
2022-07-26T09:32:20.986Z,23.08
2022-07-26T09:34:59.355Z,23.43
2022-07-26T09:37:41.265Z,23.98
2022-07-26T09:40:16.330Z,23.85
2022-07-26T09:43:05.697Z,24.04
2022-07-26T09:45:36.959Z,23.90
2022-07-26T09:48:15.391Z,23.80
2022-07-26T09:50:48.612Z,23.67
2022-07-26T09:53:22.955Z,23.52
2022-07-26T09:55:57.004Z,23.41
2022-07-26T09:58:29.457Z,23.21
2022-07-26T10:01:02.490Z,23.33
2022-07-26T10:03:32.818Z,23.52
2022-07-26T10:06:04.527Z,23.26
2022-07-26T10:08:35.584Z,23.20
2022-07-26T10:11:09.725Z,23.49
2022-07-26T10:13:38.968Z,23.02
2022-07-26T10:16:30.068Z,22.63
2022-07-26T10:19:04.822Z,22.29
2022-07-26T10:21:36.000Z,22.22
2022-07-26T10:24:27.088Z,22.18
2022-07-26T10:26:58.116Z,23.16
2022-07-26T10:29:29.469Z,24.23
2022-07-26T10:32:09.240Z,24.42
2022-07-26T10:34:40.379Z,23.82
2022-07-26T10:37:20.279Z,24.03
2022-07-26T10:40:11.869Z,23.45
2022-07-26T10:42:45.875Z,23.54
2022-07-26T10:45:22.325Z,23.53
2022-07-26T10:48:13.012Z,23.16
2022-07-26T10:50:45.518Z,22.97
2022-07-26T10:53:48.938Z,22.49
2022-07-26T10:56:20.263Z,22.49
2022-07-26T10:58:53.333Z,22.69
2022-07-26T11:01:43.368Z,22.84
2022-07-26T11:04:24.828Z,23.25
2022-07-26T11:07:07.970Z,23.56
2022-07-26T11:09:40.589Z,23.81
2022-07-26T11:12:18.643Z,24.39
2022-07-26T11:14:54.556Z,25.01
2022-07-26T11:17:34.233Z,25.72
2022-07-26T11:20:12.501Z,25.67
2022-07-26T11:22:50.903Z,25.65
2022-07-26T11:25:25.079Z,24.80
2022-07-26T11:28:07.172Z,24.90
2022-07-26T11:30:56.465Z,24.72
2022-07-26T11:33:42.288Z,24.70
2022-07-26T11:36:20.695Z,24.84
2022-07-26T11:39:16.563Z,24.49
2022-07-26T11:41:47.743Z,24.79
2022-07-26T11:44:25.086Z,24.76
2022-07-26T11:46:58.073Z,24.76
2022-07-26T11:49:52.759Z,24.52
2022-07-26T11:52:28.936Z,24.52
2022-07-26T11:54:59.890Z,24.27
2022-07-26T11:57:32.712Z,24.07
2022-07-26T12:00:02.144Z,23.64
2022-07-26T12:02:56.289Z,24.30
2022-07-26T12:05:27.485Z,24.20
2022-07-26T12:08:07.584Z,24.04
2022-07-26T12:10:44.389Z,24.35
2022-07-26T12:13:25.055Z,24.52
2022-07-26T12:15:58.476Z,24.73
2022-07-26T12:18:33.177Z,25.04
2022-07-26T12:21:18.351Z,25.37
2022-07-26T12:24:12.238Z,25.48
2022-07-26T12:26:55.092Z,25.21
2022-07-26T12:29:36.500Z,25.96
2022-07-26T12:32:13.489Z,25.56
2022-07-26T12:35:03.136Z,24.39
2022-07-26T12:37:47.134Z,24.89
2022-07-26T12:40:27.379Z,24.53
2022-07-26T12:43:04.780Z,24.41
2022-07-26T12:45:36.295Z,24.22
2022-07-26T12:48:13.208Z,24.13
2022-07-26T12:50:54.424Z,25.02
2022-07-26T12:53:37.952Z,24.87
2022-07-26T12:56:11.220Z,24.37
2022-07-26T12:58:42.049Z,23.74
2022-07-26T13:01:13.059Z,23.91
2022-07-26T13:03:44.348Z,23.96
2022-07-26T13:06:15.468Z,24.08
2022-07-26T13:08:46.459Z,23.87
2022-07-26T13:11:17.557Z,23.35
2022-07-26T13:13:46.916Z,23.06
2022-07-26T13:16:18.155Z,23.29
2022-07-26T13:18:52.527Z,23.29
2022-07-26T13:21:23.526Z,23.23
2022-07-26T13:23:54.271Z,23.26
2022-07-26T13:26:25.163Z,22.70
2022-07-26T13:28:55.939Z,22.88
2022-07-26T13:31:29.313Z,23.26
2022-07-26T13:34:00.641Z,22.96
2022-07-26T13:36:32.232Z,22.87
2022-07-26T13:39:03.656Z,23.18
2022-07-26T13:41:37.472Z,23.31
2022-07-26T13:44:11.453Z,23.08
2022-07-26T13:46:45.866Z,23.25
2022-07-26T13:49:17.224Z,23.24
2022-07-26T13:51:57.565Z,23.48
2022-07-26T13:54:33.513Z,23.68
2022-07-26T13:57:05.176Z,23.40
2022-07-26T13:59:34.558Z,23.45
2022-07-26T14:02:07.647Z,23.31
2022-07-26T14:04:38.744Z,22.96
2022-07-26T14:07:09.370Z,23.35
2022-07-26T14:09:40.373Z,23.35
2022-07-26T14:12:15.403Z,23.19
2022-07-26T14:14:49.123Z,23.34
2022-07-26T14:17:20.098Z,23.52
2022-07-26T14:19:51.838Z,23.96
2022-07-26T14:22:25.737Z,24.05
2022-07-26T14:24:57.070Z,24.01
2022-07-26T14:27:28.106Z,24.17
2022-07-26T14:29:58.995Z,24.02
2022-07-26T14:32:30.022Z,23.83
2022-07-26T14:35:01.758Z,23.83
2022-07-26T14:37:43.893Z,23.98
2022-07-26T14:40:17.261Z,24.31
2022-07-26T14:42:48.647Z,24.31
2022-07-26T14:45:20.132Z,24.43
2022-07-26T14:47:51.389Z,24.49
2022-07-26T14:50:34.973Z,24.69
2022-07-26T14:53:16.135Z,24.71
2022-07-26T14:55:47.403Z,24.55
2022-07-26T14:58:18.163Z,24.57
2022-07-26T15:00:47.866Z,24.72
2022-07-26T15:03:18.958Z,24.68
2022-07-26T15:05:50.222Z,24.43
2022-07-26T15:08:21.118Z,24.83
2022-07-26T15:10:51.878Z,25.17
2022-07-26T15:13:22.734Z,25.36
2022-07-26T15:15:54.470Z,25.62
2022-07-26T15:18:25.208Z,25.93
2022-07-26T15:20:57.844Z,26.05
2022-07-26T15:23:29.247Z,26.09
2022-07-26T15:25:59.970Z,26.35
2022-07-26T15:28:30.777Z,26.45
2022-07-26T15:31:01.587Z,26.46
2022-07-26T15:33:32.887Z,26.41
2022-07-26T15:36:05.885Z,26.38
2022-07-26T15:38:37.300Z,26.74
2022-07-26T15:41:07.881Z,26.96
2022-07-26T15:43:47.985Z,27.00
2022-07-26T15:46:20.261Z,26.84
2022-07-26T15:48:54.045Z,27.06
2022-07-26T15:51:29.744Z,27.06
2022-07-26T15:54:05.239Z,27.11
2022-07-26T15:56:36.745Z,27.03
2022-07-26T15:59:08.591Z,27.05
2022-07-26T16:01:39.474Z,27.22
2022-07-26T16:04:11.330Z,27.32
2022-07-26T16:06:42.562Z,27.42
2022-07-26T16:09:17.340Z,27.15
2022-07-26T16:11:49.082Z,27.14
2022-07-26T16:14:18.895Z,27.14
2022-07-26T16:16:49.660Z,26.92
2022-07-26T16:19:20.523Z,26.84
2022-07-26T16:21:51.490Z,27.26
2022-07-26T16:24:25.662Z,27.23
2022-07-26T16:26:56.825Z,27.24
2022-07-26T16:29:27.820Z,27.27
2022-07-26T16:31:58.414Z,27.31
2022-07-26T16:34:31.299Z,27.58
2022-07-26T16:37:04.372Z,27.78
2022-07-26T16:39:35.731Z,27.54
2022-07-26T16:42:07.412Z,27.59
2022-07-26T16:44:38.912Z,27.58
2022-07-26T16:47:11.156Z,27.43
2022-07-26T16:49:45.441Z,27.61
2022-07-26T16:52:16.617Z,27.78
2022-07-26T16:54:50.773Z,27.95
2022-07-26T16:57:21.727Z,27.89
2022-07-26T17:00:00.434Z,28.08
2022-07-26T17:02:31.533Z,27.98
2022-07-26T17:05:03.527Z,28.43
2022-07-26T17:07:36.807Z,28.70
2022-07-26T17:10:09.136Z,28.53
2022-07-26T17:12:41.187Z,28.92
2022-07-26T17:15:12.055Z,29.11
2022-07-26T17:17:48.656Z,29.29
2022-07-26T17:20:19.934Z,29.29
2022-07-26T17:22:51.012Z,29.64
2022-07-26T17:25:21.980Z,29.75
2022-07-26T17:28:12.497Z,30.17
2022-07-26T17:30:47.655Z,30.65
2022-07-26T17:33:19.193Z,31.17
2022-07-26T17:35:50.481Z,31.73
2022-07-26T17:38:21.551Z,32.02
2022-07-26T17:40:57.479Z,32.49
2022-07-26T17:43:36.379Z,32.67
2022-07-26T17:46:08.328Z,32.99
2022-07-26T17:48:39.808Z,32.96
2022-07-26T17:51:10.622Z,33.37
2022-07-26T17:53:42.994Z,33.53
2022-07-26T17:56:14.191Z,34.32
2022-07-26T17:58:45.399Z,34.50
2022-07-26T18:01:16.256Z,34.80
2022-07-26T18:03:47.348Z,33.56
2022-07-26T18:06:19.063Z,34.04
2022-07-26T18:08:50.005Z,34.33
2022-07-26T18:11:20.947Z,35.53
2022-07-26T18:13:49.043Z,36.15
2022-07-26T18:16:20.050Z,37.90
2022-07-26T18:18:51.051Z,37.53
2022-07-26T18:21:21.668Z,38.90
2022-07-26T18:24:14.682Z,39.30
2022-07-26T18:26:43.887Z,40.31
2022-07-26T18:29:16.699Z,40.38
2022-07-26T18:31:48.270Z,40.40
2022-07-26T18:34:19.636Z,41.13
2022-07-26T18:36:50.873Z,41.77
2022-07-26T18:39:21.903Z,41.66
2022-07-26T18:41:53.695Z,42.98
2022-07-26T18:44:24.437Z,42.22
2022-07-26T18:46:56.568Z,43.47
2022-07-26T18:49:31.032Z,41.01
2022-07-26T18:52:08.337Z,41.64
2022-07-26T18:54:40.377Z,43.26
2022-07-26T18:57:11.523Z,43.75
2022-07-26T18:59:42.980Z,43.94
2022-07-26T19:02:14.281Z,43.21
2022-07-26T19:04:45.461Z,43.27
2022-07-26T19:07:16.506Z,42.72
2022-07-26T19:09:45.933Z,42.00
2022-07-26T19:12:17.799Z,44.06
2022-07-26T19:14:48.740Z,42.81
2022-07-26T19:17:20.571Z,43.02
2022-07-26T19:19:51.904Z,43.04
2022-07-26T19:22:24.186Z,41.77
2022-07-26T19:24:55.431Z,43.46
2022-07-26T19:27:28.056Z,42.97
2022-07-26T19:29:58.896Z,43.24
2022-07-26T19:32:33.523Z,43.72
2022-07-26T19:35:05.432Z,42.23
2022-07-26T19:37:38.597Z,43.15
2022-07-26T19:40:11.630Z,45.72
2022-07-26T19:42:42.596Z,45.46
2022-07-26T19:45:12.913Z,44.93
2022-07-26T19:47:44.159Z,44.42
2022-07-26T19:50:15.267Z,44.31
2022-07-26T19:52:46.094Z,46.52
2022-07-26T19:55:18.109Z,45.75
2022-07-26T19:57:49.443Z,46.45
2022-07-26T20:00:20.009Z,47.55
2022-07-26T20:02:51.251Z,48.69
2022-07-26T20:05:22.523Z,49.37
2022-07-26T20:07:53.396Z,49.00
2022-07-26T20:10:28.531Z,48.39
2022-07-26T20:13:06.801Z,47.86
2022-07-26T20:15:37.929Z,48.50
2022-07-26T20:18:10.269Z,48.03
2022-07-26T20:20:41.203Z,49.56
2022-07-26T20:23:15.461Z,50.18
2022-07-26T20:25:46.430Z,50.03
2022-07-26T20:28:17.182Z,50.14
2022-07-26T20:30:53.492Z,49.07
2022-07-26T20:33:25.626Z,49.15
2022-07-26T20:35:56.500Z,50.01
2022-07-26T20:38:27.507Z,50.70
2022-07-26T20:40:58.658Z,52.16
2022-07-26T20:43:35.041Z,53.13
2022-07-26T20:46:05.841Z,52.01
2022-07-26T20:48:37.108Z,51.83
2022-07-26T20:51:13.493Z,52.09
2022-07-26T20:53:45.409Z,52.75
2022-07-26T20:56:16.537Z,51.86
2022-07-26T20:58:48.698Z,53.04
2022-07-26T21:01:20.971Z,52.45
2022-07-26T21:03:53.217Z,52.03
2022-07-26T21:06:24.373Z,53.73
2022-07-26T21:09:00.314Z,55.15
2022-07-26T21:11:39.990Z,55.12
2022-07-26T21:14:09.293Z,53.70
2022-07-26T21:16:40.135Z,54.16
2022-07-26T21:19:11.242Z,55.41
2022-07-26T21:21:44.529Z,54.45
2022-07-26T21:24:15.681Z,53.91
2022-07-26T21:26:46.719Z,53.72
2022-07-26T21:29:17.734Z,55.62
2022-07-26T21:31:47.741Z,56.64
2022-07-26T21:34:18.688Z,55.45
2022-07-26T21:36:49.729Z,55.22
2022-07-26T21:39:21.029Z,56.03
2022-07-26T21:41:51.998Z,57.75
2022-07-26T21:44:23.307Z,57.47
2022-07-26T21:46:55.225Z,58.30
2022-07-26T21:49:26.055Z,58.07
2022-07-26T21:51:57.185Z,60.68
2022-07-26T21:54:26.303Z,59.24
2022-07-26T21:56:57.122Z,58.70
2022-07-26T21:59:27.876Z,59.76
2022-07-26T22:02:00.062Z,60.19
2022-07-26T22:04:31.269Z,60.25
2022-07-26T22:07:02.419Z,59.07
2022-07-26T22:09:36.814Z,56.90
2022-07-26T22:12:08.037Z,58.14
2022-07-26T22:14:41.036Z,58.79
2022-07-26T22:17:11.854Z,57.83
2022-07-26T22:19:42.701Z,59.00
2022-07-26T22:22:16.430Z,58.14
2022-07-26T22:24:47.117Z,58.61
2022-07-26T22:27:19.594Z,57.96
2022-07-26T22:29:50.886Z,58.10
2022-07-26T22:32:21.840Z,56.94
2022-07-26T22:34:52.700Z,58.80
2022-07-26T22:37:23.729Z,57.97
2022-07-26T22:39:54.477Z,59.08
2022-07-26T22:42:25.421Z,58.40
2022-07-26T22:44:56.540Z,60.80
2022-07-26T22:47:27.100Z,60.32
2022-07-26T22:49:58.191Z,60.41
2022-07-26T22:52:29.383Z,60.30
2022-07-26T22:54:59.933Z,61.27
2022-07-26T22:57:30.873Z,61.63
2022-07-26T23:00:02.496Z,62.89
2022-07-26T23:02:33.809Z,61.99
2022-07-26T23:05:05.011Z,61.06
2022-07-26T23:07:36.100Z,63.71
2022-07-26T23:10:09.812Z,64.17
2022-07-26T23:12:40.817Z,64.46
2022-07-26T23:15:13.336Z,63.50
2022-07-26T23:17:44.405Z,62.81
2022-07-26T23:20:15.912Z,61.05
2022-07-26T23:22:47.191Z,62.68
2022-07-26T23:25:18.300Z,61.71
2022-07-26T23:27:49.490Z,61.22
2022-07-26T23:30:20.779Z,62.07
2022-07-26T23:32:51.740Z,62.99
2022-07-26T23:35:21.712Z,62.83
2022-07-26T23:37:52.534Z,63.10
2022-07-26T23:40:25.239Z,61.90
2022-07-26T23:42:56.459Z,62.42
2022-07-26T23:45:27.318Z,65.07
2022-07-26T23:47:57.966Z,65.83
2022-07-26T23:50:28.796Z,65.67
2022-07-26T23:53:00.608Z,64.65
2022-07-26T23:55:35.782Z,62.33
2022-07-26T23:58:07.131Z,63.49
